sensor_id;sensor_type;location;lat;lon;timestamp;P1;durP1;ratioP1;P2;durP2;ratioP2
5912;SDS011;2982;42.684;23.356;2023-01-16T00:00:48;52.53;;;28.27;;
5912;SDS011;2982;42.684;23.356;2023-01-16T00:03:13;54.40;;;28.27;;
5912;SDS011;2982;42.684;23.356;2023-01-16T00:05:42;53.77;;;28.43;;
5912;SDS011;2982;42.684;23.356;2023-01-16T00:08:07;47.27;;;25.37;;
5912;SDS011;2982;42.684;23.356;2023-01-16T00:10:33;49.07;;;27.40;;
5912;SDS011;2982;42.684;23.356;2023-01-16T00:12:58;54.83;;;28.37;;
5912;SDS011;2982;42.684;23.356;2023-01-16T00:15:27;48.80;;;26.43;;
5912;SDS011;2982;42.684;23.356;2023-01-16T00:17:52;51.20;;;27.33;;
5912;SDS011;2982;42.684;23.356;2023-01-16T00:20:18;52.37;;;26.67;;
5912;SDS011;2982;42.684;23.356;2023-01-16T00:22:43;45.40;;;25.80;;
5912;SDS011;2982;42.684;23.356;2023-01-16T00:25:09;44.00;;;25.70;;
5912;SDS011;2982;42.684;23.356;2023-01-16T00:27:35;47.03;;;25.10;;
5912;SDS011;2982;42.684;23.356;2023-01-16T00:30:00;51.60;;;26.00;;
5912;SDS011;2982;42.684;23.356;2023-01-16T00:32:25;47.33;;;25.37;;
5912;SDS011;2982;42.684;23.356;2023-01-16T00:34:51;41.60;;;25.10;;
5912;SDS011;2982;42.684;23.356;2023-01-16T00:37:16;53.77;;;25.97;;
5912;SDS011;2982;42.684;23.356;2023-01-16T00:39:41;53.43;;;25.73;;
5912;SDS011;2982;42.684;23.356;2023-01-16T00:42:07;48.50;;;24.77;;
5912;SDS011;2982;42.684;23.356;2023-01-16T00:44:32;46.57;;;25.43;;
5912;SDS011;2982;42.684;23.356;2023-01-16T00:46:58;48.93;;;24.67;;
5912;SDS011;2982;42.684;23.356;2023-01-16T00:49:23;46.50;;;24.00;;
5912;SDS011;2982;42.684;23.356;2023-01-16T00:51:51;44.63;;;24.83;;
5912;SDS011;2982;42.684;23.356;2023-01-16T00:54:17;43.23;;;24.33;;
5912;SDS011;2982;42.684;23.356;2023-01-16T00:56:43;43.17;;;22.77;;
5912;SDS011;2982;42.684;23.356;2023-01-16T00:59:09;39.87;;;22.53;;
5912;SDS011;2982;42.684;23.356;2023-01-16T01:01:35;43.27;;;24.47;;
5912;SDS011;2982;42.684;23.356;2023-01-16T01:04:00;46.43;;;23.87;;
5912;SDS011;2982;42.684;23.356;2023-01-16T01:06:26;42.63;;;23.53;;
5912;SDS011;2982;42.684;23.356;2023-01-16T01:08:51;42.70;;;23.20;;
5912;SDS011;2982;42.684;23.356;2023-01-16T01:11:16;38.87;;;22.43;;
5912;SDS011;2982;42.684;23.356;2023-01-16T01:13:42;44.50;;;23.30;;
5912;SDS011;2982;42.684;23.356;2023-01-16T01:16:08;42.43;;;21.80;;
5912;SDS011;2982;42.684;23.356;2023-01-16T01:18:35;45.10;;;23.10;;
5912;SDS011;2982;42.684;23.356;2023-01-16T01:21:03;38.80;;;22.67;;
5912;SDS011;2982;42.684;23.356;2023-01-16T01:23:29;41.10;;;23.00;;
5912;SDS011;2982;42.684;23.356;2023-01-16T01:25:54;41.60;;;24.27;;
5912;SDS011;2982;42.684;23.356;2023-01-16T01:28:20;47.27;;;26.10;;
5912;SDS011;2982;42.684;23.356;2023-01-16T01:30:45;43.70;;;23.50;;
5912;SDS011;2982;42.684;23.356;2023-01-16T01:33:11;43.23;;;21.60;;
5912;SDS011;2982;42.684;23.356;2023-01-16T01:35:37;40.97;;;23.03;;
5912;SDS011;2982;42.684;23.356;2023-01-16T01:38:02;44.10;;;22.67;;
5912;SDS011;2982;42.684;23.356;2023-01-16T01:40:28;40.40;;;22.60;;
5912;SDS011;2982;42.684;23.356;2023-01-16T01:42:53;44.23;;;22.67;;
5912;SDS011;2982;42.684;23.356;2023-01-16T01:45:25;44.17;;;22.53;;
5912;SDS011;2982;42.684;23.356;2023-01-16T01:50:36;41.03;;;21.13;;
5912;SDS011;2982;42.684;23.356;2023-01-16T01:53:18;39.17;;;22.20;;
5912;SDS011;2982;42.684;23.356;2023-01-16T01:55:49;40.73;;;22.57;;
5912;SDS011;2982;42.684;23.356;2023-01-16T01:58:16;46.37;;;23.70;;
5912;SDS011;2982;42.684;23.356;2023-01-16T02:00:45;45.57;;;22.63;;
5912;SDS011;2982;42.684;23.356;2023-01-16T02:03:14;38.77;;;21.87;;
5912;SDS011;2982;42.684;23.356;2023-01-16T02:05:44;43.47;;;21.07;;
5912;SDS011;2982;42.684;23.356;2023-01-16T02:08:13;41.30;;;23.27;;
5912;SDS011;2982;42.684;23.356;2023-01-16T02:10:42;41.90;;;23.03;;
5912;SDS011;2982;42.684;23.356;2023-01-16T02:13:09;42.27;;;21.77;;
5912;SDS011;2982;42.684;23.356;2023-01-16T02:15:34;41.23;;;19.97;;
5912;SDS011;2982;42.684;23.356;2023-01-16T02:18:02;41.30;;;20.70;;
5912;SDS011;2982;42.684;23.356;2023-01-16T02:20:27;40.17;;;21.77;;
5912;SDS011;2982;42.684;23.356;2023-01-16T02:29:35;35.40;;;19.70;;
5912;SDS011;2982;42.684;23.356;2023-01-16T02:34:19;43.10;;;21.97;;
5912;SDS011;2982;42.684;23.356;2023-01-16T02:42:14;34.63;;;19.00;;
5912;SDS011;2982;42.684;23.356;2023-01-16T02:47:41;36.03;;;19.00;;
5912;SDS011;2982;42.684;23.356;2023-01-16T02:50:35;36.77;;;19.77;;
5912;SDS011;2982;42.684;23.356;2023-01-16T02:55:28;37.03;;;19.93;;
5912;SDS011;2982;42.684;23.356;2023-01-16T02:58:06;40.80;;;20.90;;
5912;SDS011;2982;42.684;23.356;2023-01-16T03:00:37;35.67;;;19.73;;
5912;SDS011;2982;42.684;23.356;2023-01-16T03:03:24;33.57;;;19.03;;
5912;SDS011;2982;42.684;23.356;2023-01-16T03:06:03;43.13;;;19.67;;
5912;SDS011;2982;42.684;23.356;2023-01-16T03:11:30;40.80;;;20.30;;
5912;SDS011;2982;42.684;23.356;2023-01-16T03:14:20;37.33;;;20.83;;
5912;SDS011;2982;42.684;23.356;2023-01-16T03:25:08;35.67;;;19.07;;
5912;SDS011;2982;42.684;23.356;2023-01-16T03:27:44;42.30;;;20.73;;
5912;SDS011;2982;42.684;23.356;2023-01-16T03:30:25;37.20;;;18.83;;
5912;SDS011;2982;42.684;23.356;2023-01-16T03:36:00;38.90;;;19.23;;
5912;SDS011;2982;42.684;23.356;2023-01-16T03:38:31;37.63;;;18.53;;
5912;SDS011;2982;42.684;23.356;2023-01-16T03:40:59;36.67;;;19.37;;
5912;SDS011;2982;42.684;23.356;2023-01-16T03:43:29;39.30;;;20.57;;
5912;SDS011;2982;42.684;23.356;2023-01-16T03:46:06;37.90;;;19.30;;
5912;SDS011;2982;42.684;23.356;2023-01-16T03:48:47;41.27;;;20.50;;
5912;SDS011;2982;42.684;23.356;2023-01-16T03:51:36;39.17;;;19.50;;
5912;SDS011;2982;42.684;23.356;2023-01-16T03:54:07;37.27;;;18.17;;
5912;SDS011;2982;42.684;23.356;2023-01-16T03:56:52;38.00;;;18.83;;
5912;SDS011;2982;42.684;23.356;2023-01-16T03:59:35;40.00;;;18.70;;
5912;SDS011;2982;42.684;23.356;2023-01-16T04:02:12;37.47;;;19.63;;
5912;SDS011;2982;42.684;23.356;2023-01-16T04:04:54;35.47;;;18.90;;
5912;SDS011;2982;42.684;23.356;2023-01-16T04:07:50;35.17;;;17.77;;
5912;SDS011;2982;42.684;23.356;2023-01-16T04:10:22;36.70;;;18.50;;
5912;SDS011;2982;42.684;23.356;2023-01-16T04:12:51;34.63;;;18.17;;
5912;SDS011;2982;42.684;23.356;2023-01-16T04:15:20;38.17;;;17.97;;
5912;SDS011;2982;42.684;23.356;2023-01-16T04:17:48;33.23;;;18.20;;
5912;SDS011;2982;42.684;23.356;2023-01-16T04:20:14;37.60;;;18.67;;
5912;SDS011;2982;42.684;23.356;2023-01-16T04:22:39;35.97;;;17.23;;
5912;SDS011;2982;42.684;23.356;2023-01-16T04:25:07;40.03;;;18.73;;
5912;SDS011;2982;42.684;23.356;2023-01-16T04:27:33;39.07;;;19.30;;
5912;SDS011;2982;42.684;23.356;2023-01-16T04:29:59;39.60;;;19.13;;
5912;SDS011;2982;42.684;23.356;2023-01-16T04:32:24;47.60;;;20.70;;
5912;SDS011;2982;42.684;23.356;2023-01-16T04:34:50;45.67;;;20.13;;
5912;SDS011;2982;42.684;23.356;2023-01-16T04:37:15;47.60;;;21.33;;
5912;SDS011;2982;42.684;23.356;2023-01-16T04:39:42;49.83;;;20.67;;
5912;SDS011;2982;42.684;23.356;2023-01-16T04:42:07;72.50;;;26.27;;
5912;SDS011;2982;42.684;23.356;2023-01-16T04:44:33;57.63;;;23.17;;
5912;SDS011;2982;42.684;23.356;2023-01-16T04:46:58;66.10;;;24.67;;
5912;SDS011;2982;42.684;23.356;2023-01-16T04:49:24;64.83;;;24.10;;
5912;SDS011;2982;42.684;23.356;2023-01-16T04:51:49;64.27;;;24.37;;
5912;SDS011;2982;42.684;23.356;2023-01-16T04:54:15;54.27;;;23.07;;
5912;SDS011;2982;42.684;23.356;2023-01-16T04:56:42;62.37;;;23.17;;
5912;SDS011;2982;42.684;23.356;2023-01-16T04:59:08;65.97;;;24.53;;
5912;SDS011;2982;42.684;23.356;2023-01-16T05:01:34;69.13;;;23.57;;
5912;SDS011;2982;42.684;23.356;2023-01-16T05:04:00;59.43;;;22.70;;
5912;SDS011;2982;42.684;23.356;2023-01-16T05:06:26;62.80;;;23.07;;
5912;SDS011;2982;42.684;23.356;2023-01-16T05:08:52;64.73;;;23.73;;
5912;SDS011;2982;42.684;23.356;2023-01-16T05:11:17;88.03;;;25.00;;
5912;SDS011;2982;42.684;23.356;2023-01-16T05:13:46;76.57;;;23.70;;
5912;SDS011;2982;42.684;23.356;2023-01-16T05:16:14;88.23;;;24.27;;
5912;SDS011;2982;42.684;23.356;2023-01-16T05:18:40;87.80;;;25.67;;
5912;SDS011;2982;42.684;23.356;2023-01-16T05:21:09;107.37;;;25.77;;
5912;SDS011;2982;42.684;23.356;2023-01-16T05:23:38;147.00;;;25.40;;
5912;SDS011;2982;42.684;23.356;2023-01-16T05:26:04;118.83;;;25.13;;
5912;SDS011;2982;42.684;23.356;2023-01-16T05:28:30;163.30;;;27.53;;
5912;SDS011;2982;42.684;23.356;2023-01-16T05:30:55;131.03;;;26.07;;
5912;SDS011;2982;42.684;23.356;2023-01-16T05:33:21;94.87;;;26.03;;
5912;SDS011;2982;42.684;23.356;2023-01-16T05:35:47;83.67;;;26.33;;
5912;SDS011;2982;42.684;23.356;2023-01-16T05:38:13;119.80;;;28.67;;
5912;SDS011;2982;42.684;23.356;2023-01-16T05:40:38;93.50;;;27.27;;
5912;SDS011;2982;42.684;23.356;2023-01-16T05:43:04;140.70;;;27.60;;
5912;SDS011;2982;42.684;23.356;2023-01-16T05:45:29;135.60;;;27.23;;
5912;SDS011;2982;42.684;23.356;2023-01-16T05:47:55;185.93;;;28.90;;
5912;SDS011;2982;42.684;23.356;2023-01-16T05:50:20;166.00;;;27.17;;
5912;SDS011;2982;42.684;23.356;2023-01-16T05:52:45;107.27;;;24.50;;
5912;SDS011;2982;42.684;23.356;2023-01-16T05:55:10;141.57;;;24.63;;
5912;SDS011;2982;42.684;23.356;2023-01-16T05:57:36;87.77;;;24.40;;
5912;SDS011;2982;42.684;23.356;2023-01-16T06:00:02;97.77;;;24.53;;
5912;SDS011;2982;42.684;23.356;2023-01-16T06:02:28;76.27;;;24.53;;
5912;SDS011;2982;42.684;23.356;2023-01-16T06:04:53;79.20;;;26.73;;
5912;SDS011;2982;42.684;23.356;2023-01-16T06:07:19;69.37;;;25.87;;
5912;SDS011;2982;42.684;23.356;2023-01-16T06:09:44;68.70;;;25.73;;
5912;SDS011;2982;42.684;23.356;2023-01-16T06:12:14;72.30;;;24.37;;
5912;SDS011;2982;42.684;23.356;2023-01-16T06:14:40;73.13;;;24.80;;
5912;SDS011;2982;42.684;23.356;2023-01-16T06:17:05;65.53;;;27.03;;
5912;SDS011;2982;42.684;23.356;2023-01-16T06:19:31;90.73;;;26.73;;
5912;SDS011;2982;42.684;23.356;2023-01-16T06:21:56;81.87;;;27.83;;
5912;SDS011;2982;42.684;23.356;2023-01-16T06:24:21;158.67;;;28.40;;
5912;SDS011;2982;42.684;23.356;2023-01-16T06:26:46;144.90;;;28.77;;
5912;SDS011;2982;42.684;23.356;2023-01-16T06:29:12;79.77;;;29.10;;
5912;SDS011;2982;42.684;23.356;2023-01-16T06:31:37;64.30;;;26.03;;
5912;SDS011;2982;42.684;23.356;2023-01-16T06:34:02;68.37;;;25.80;;
5912;SDS011;2982;42.684;23.356;2023-01-16T06:36:28;73.97;;;25.83;;
5912;SDS011;2982;42.684;23.356;2023-01-16T06:38:53;142.90;;;29.03;;
5912;SDS011;2982;42.684;23.356;2023-01-16T06:41:19;68.40;;;26.53;;
5912;SDS011;2982;42.684;23.356;2023-01-16T06:43:44;68.40;;;27.53;;
5912;SDS011;2982;42.684;23.356;2023-01-16T06:46:09;77.53;;;29.13;;
5912;SDS011;2982;42.684;23.356;2023-01-16T06:48:35;80.80;;;29.37;;
5912;SDS011;2982;42.684;23.356;2023-01-16T06:51:00;76.27;;;27.10;;
5912;SDS011;2982;42.684;23.356;2023-01-16T06:53:26;65.17;;;28.33;;
5912;SDS011;2982;42.684;23.356;2023-01-16T06:55:51;59.87;;;26.90;;
5912;SDS011;2982;42.684;23.356;2023-01-16T06:58:17;67.20;;;28.63;;
5912;SDS011;2982;42.684;23.356;2023-01-16T07:00:42;72.97;;;28.57;;
5912;SDS011;2982;42.684;23.356;2023-01-16T07:03:08;69.90;;;28.13;;
5912;SDS011;2982;42.684;23.356;2023-01-16T07:05:33;69.10;;;28.47;;
5912;SDS011;2982;42.684;23.356;2023-01-16T07:07:59;77.43;;;28.87;;
5912;SDS011;2982;42.684;23.356;2023-01-16T07:10:24;67.27;;;28.40;;
5912;SDS011;2982;42.684;23.356;2023-01-16T07:12:50;75.50;;;28.50;;
5912;SDS011;2982;42.684;23.356;2023-01-16T07:15:17;69.97;;;30.27;;
5912;SDS011;2982;42.684;23.356;2023-01-16T07:17:42;80.07;;;30.10;;
5912;SDS011;2982;42.684;23.356;2023-01-16T07:20:09;62.53;;;28.73;;
5912;SDS011;2982;42.684;23.356;2023-01-16T07:22:35;69.30;;;29.90;;
5912;SDS011;2982;42.684;23.356;2023-01-16T07:25:01;72.90;;;27.80;;
5912;SDS011;2982;42.684;23.356;2023-01-16T07:27:31;68.70;;;27.67;;
5912;SDS011;2982;42.684;23.356;2023-01-16T07:29:56;64.10;;;27.53;;
5912;SDS011;2982;42.684;23.356;2023-01-16T07:32:21;62.33;;;28.10;;
5912;SDS011;2982;42.684;23.356;2023-01-16T07:34:47;61.10;;;29.33;;
5912;SDS011;2982;42.684;23.356;2023-01-16T07:37:12;64.83;;;27.43;;
5912;SDS011;2982;42.684;23.356;2023-01-16T07:39:37;65.20;;;27.30;;
5912;SDS011;2982;42.684;23.356;2023-01-16T07:42:03;63.70;;;27.13;;
5912;SDS011;2982;42.684;23.356;2023-01-16T07:44:30;62.13;;;28.40;;
5912;SDS011;2982;42.684;23.356;2023-01-16T07:46:55;69.80;;;28.87;;
5912;SDS011;2982;42.684;23.356;2023-01-16T07:49:20;61.60;;;26.50;;
5912;SDS011;2982;42.684;23.356;2023-01-16T07:51:45;60.53;;;26.50;;
5912;SDS011;2982;42.684;23.356;2023-01-16T07:54:11;69.30;;;28.93;;
5912;SDS011;2982;42.684;23.356;2023-01-16T07:56:36;65.97;;;28.40;;
5912;SDS011;2982;42.684;23.356;2023-01-16T07:59:01;161.90;;;60.83;;
5912;SDS011;2982;42.684;23.356;2023-01-16T08:01:27;215.10;;;82.27;;
5912;SDS011;2982;42.684;23.356;2023-01-16T08:03:52;215.83;;;82.90;;
5912;SDS011;2982;42.684;23.356;2023-01-16T08:06:17;207.70;;;80.37;;
5912;SDS011;2982;42.684;23.356;2023-01-16T08:08:43;143.53;;;54.93;;
5912;SDS011;2982;42.684;23.356;2023-01-16T08:11:08;157.83;;;54.07;;
5912;SDS011;2982;42.684;23.356;2023-01-16T08:13:33;134.80;;;48.53;;
5912;SDS011;2982;42.684;23.356;2023-01-16T08:15:58;125.77;;;47.37;;
5912;SDS011;2982;42.684;23.356;2023-01-16T08:18:24;108.00;;;43.60;;
5912;SDS011;2982;42.684;23.356;2023-01-16T08:20:49;111.20;;;42.67;;
5912;SDS011;2982;42.684;23.356;2023-01-16T08:23:14;97.87;;;40.23;;
5912;SDS011;2982;42.684;23.356;2023-01-16T08:25:39;86.23;;;38.00;;
5912;SDS011;2982;42.684;23.356;2023-01-16T08:28:05;110.77;;;41.30;;
5912;SDS011;2982;42.684;23.356;2023-01-16T08:30:30;157.87;;;56.70;;
5912;SDS011;2982;42.684;23.356;2023-01-16T08:32:59;144.57;;;52.00;;
5912;SDS011;2982;42.684;23.356;2023-01-16T08:35:25;164.60;;;55.30;;
5912;SDS011;2982;42.684;23.356;2023-01-16T08:37:51;120.03;;;46.93;;
5912;SDS011;2982;42.684;23.356;2023-01-16T08:40:16;112.70;;;44.23;;
5912;SDS011;2982;42.684;23.356;2023-01-16T08:42:42;123.03;;;47.67;;
5912;SDS011;2982;42.684;23.356;2023-01-16T08:45:14;116.60;;;43.27;;
5912;SDS011;2982;42.684;23.356;2023-01-16T08:47:39;100.33;;;42.47;;
5912;SDS011;2982;42.684;23.356;2023-01-16T08:50:05;118.77;;;44.70;;
5912;SDS011;2982;42.684;23.356;2023-01-16T08:52:30;110.93;;;44.13;;
5912;SDS011;2982;42.684;23.356;2023-01-16T08:54:57;109.23;;;43.00;;
5912;SDS011;2982;42.684;23.356;2023-01-16T08:57:23;103.77;;;43.03;;
5912;SDS011;2982;42.684;23.356;2023-01-16T08:59:48;70.83;;;33.20;;
5912;SDS011;2982;42.684;23.356;2023-01-16T09:02:14;78.13;;;34.93;;
5912;SDS011;2982;42.684;23.356;2023-01-16T09:04:39;90.40;;;39.20;;
5912;SDS011;2982;42.684;23.356;2023-01-16T09:07:05;102.37;;;42.03;;
5912;SDS011;2982;42.684;23.356;2023-01-16T09:09:30;106.80;;;42.63;;
5912;SDS011;2982;42.684;23.356;2023-01-16T09:11:55;102.10;;;40.93;;
5912;SDS011;2982;42.684;23.356;2023-01-16T09:14:21;101.63;;;44.03;;
5912;SDS011;2982;42.684;23.356;2023-01-16T09:16:46;96.87;;;38.90;;
5912;SDS011;2982;42.684;23.356;2023-01-16T09:19:12;92.40;;;38.30;;
5912;SDS011;2982;42.684;23.356;2023-01-16T09:21:37;100.23;;;41.77;;
5912;SDS011;2982;42.684;23.356;2023-01-16T09:24:02;110.07;;;43.93;;
5912;SDS011;2982;42.684;23.356;2023-01-16T09:26:28;89.80;;;40.60;;
5912;SDS011;2982;42.684;23.356;2023-01-16T09:28:54;109.47;;;38.87;;
5912;SDS011;2982;42.684;23.356;2023-01-16T09:31:19;74.80;;;35.57;;
5912;SDS011;2982;42.684;23.356;2023-01-16T09:33:45;80.40;;;35.50;;
5912;SDS011;2982;42.684;23.356;2023-01-16T09:36:10;72.43;;;34.17;;
5912;SDS011;2982;42.684;23.356;2023-01-16T09:38:35;73.70;;;32.63;;
5912;SDS011;2982;42.684;23.356;2023-01-16T09:41:01;68.03;;;30.73;;
5912;SDS011;2982;42.684;23.356;2023-01-16T09:45:52;63.27;;;30.17;;
5912;SDS011;2982;42.684;23.356;2023-01-16T09:48:25;60.97;;;29.07;;
5912;SDS011;2982;42.684;23.356;2023-01-16T09:50:54;57.27;;;28.33;;
5912;SDS011;2982;42.684;23.356;2023-01-16T09:53:34;48.33;;;24.73;;
5912;SDS011;2982;42.684;23.356;2023-01-16T09:56:07;52.57;;;26.00;;
5912;SDS011;2982;42.684;23.356;2023-01-16T09:58:39;46.20;;;24.40;;
5912;SDS011;2982;42.684;23.356;2023-01-16T10:01:42;52.83;;;23.43;;
5912;SDS011;2982;42.684;23.356;2023-01-16T10:12:08;36.87;;;21.67;;
5912;SDS011;2982;42.684;23.356;2023-01-16T10:17:13;26.80;;;16.10;;
5912;SDS011;2982;42.684;23.356;2023-01-16T10:19:53;22.87;;;15.37;;
5912;SDS011;2982;42.684;23.356;2023-01-16T10:33:29;29.07;;;17.73;;
5912;SDS011;2982;42.684;23.356;2023-01-16T10:35:59;31.30;;;18.53;;
5912;SDS011;2982;42.684;23.356;2023-01-16T10:41:11;27.60;;;16.53;;
5912;SDS011;2982;42.684;23.356;2023-01-16T10:43:42;29.37;;;17.47;;
5912;SDS011;2982;42.684;23.356;2023-01-16T10:46:12;31.00;;;19.00;;
5912;SDS011;2982;42.684;23.356;2023-01-16T10:48:42;32.17;;;18.37;;
5912;SDS011;2982;42.684;23.356;2023-01-16T10:51:07;39.00;;;21.80;;
5912;SDS011;2982;42.684;23.356;2023-01-16T10:53:34;44.80;;;23.70;;
5912;SDS011;2982;42.684;23.356;2023-01-16T10:56:00;41.60;;;22.23;;
5912;SDS011;2982;42.684;23.356;2023-01-16T11:00:55;40.73;;;23.43;;
5912;SDS011;2982;42.684;23.356;2023-01-16T11:03:34;34.67;;;22.23;;
5912;SDS011;2982;42.684;23.356;2023-01-16T11:06:22;34.47;;;20.30;;
5912;SDS011;2982;42.684;23.356;2023-01-16T11:08:52;38.17;;;21.60;;
5912;SDS011;2982;42.684;23.356;2023-01-16T11:11:18;43.07;;;22.10;;
5912;SDS011;2982;42.684;23.356;2023-01-16T11:13:43;39.40;;;21.67;;
5912;SDS011;2982;42.684;23.356;2023-01-16T11:18:37;31.60;;;18.53;;
5912;SDS011;2982;42.684;23.356;2023-01-16T11:23:58;34.00;;;16.93;;
5912;SDS011;2982;42.684;23.356;2023-01-16T11:26:27;30.13;;;17.43;;
5912;SDS011;2982;42.684;23.356;2023-01-16T11:28:55;28.27;;;17.00;;
5912;SDS011;2982;42.684;23.356;2023-01-16T11:31:25;24.37;;;16.50;;
5912;SDS011;2982;42.684;23.356;2023-01-16T11:33:53;30.67;;;19.50;;
5912;SDS011;2982;42.684;23.356;2023-01-16T11:36:23;26.37;;;16.03;;
5912;SDS011;2982;42.684;23.356;2023-01-16T11:38:49;32.73;;;19.23;;
5912;SDS011;2982;42.684;23.356;2023-01-16T11:41:20;31.80;;;17.87;;
5912;SDS011;2982;42.684;23.356;2023-01-16T11:44:23;24.07;;;16.53;;
5912;SDS011;2982;42.684;23.356;2023-01-16T11:46:50;29.33;;;16.40;;
5912;SDS011;2982;42.684;23.356;2023-01-16T11:49:24;27.13;;;17.23;;
5912;SDS011;2982;42.684;23.356;2023-01-16T11:51:52;30.10;;;17.77;;
5912;SDS011;2982;42.684;23.356;2023-01-16T11:54:20;34.33;;;18.37;;
5912;SDS011;2982;42.684;23.356;2023-01-16T11:56:56;25.33;;;16.57;;
5912;SDS011;2982;42.684;23.356;2023-01-16T11:59:45;29.63;;;18.27;;
5912;SDS011;2982;42.684;23.356;2023-01-16T12:07:36;26.20;;;17.87;;
5912;SDS011;2982;42.684;23.356;2023-01-16T12:10:29;25.40;;;16.40;;
5912;SDS011;2982;42.684;23.356;2023-01-16T12:13:05;24.03;;;16.83;;
5912;SDS011;2982;42.684;23.356;2023-01-16T12:16:18;28.23;;;17.57;;
5912;SDS011;2982;42.684;23.356;2023-01-16T12:21:14;31.17;;;18.43;;
5912;SDS011;2982;42.684;23.356;2023-01-16T12:26:35;27.07;;;17.23;;
5912;SDS011;2982;42.684;23.356;2023-01-16T12:34:56;34.33;;;17.53;;
5912;SDS011;2982;42.684;23.356;2023-01-16T12:59:40;13.50;;;10.10;;
5912;SDS011;2982;42.684;23.356;2023-01-16T13:02:31;19.23;;;11.37;;
5912;SDS011;2982;42.684;23.356;2023-01-16T13:05:11;19.13;;;12.33;;
5912;SDS011;2982;42.684;23.356;2023-01-16T13:07:44;17.83;;;12.40;;
5912;SDS011;2982;42.684;23.356;2023-01-16T13:10:18;21.23;;;14.17;;
5912;SDS011;2982;42.684;23.356;2023-01-16T13:12:47;16.13;;;12.20;;
5912;SDS011;2982;42.684;23.356;2023-01-16T13:15:16;19.80;;;12.80;;
5912;SDS011;2982;42.684;23.356;2023-01-16T13:17:47;17.60;;;11.47;;
5912;SDS011;2982;42.684;23.356;2023-01-16T13:20:16;17.23;;;12.03;;
5912;SDS011;2982;42.684;23.356;2023-01-16T13:23:01;18.10;;;11.10;;
5912;SDS011;2982;42.684;23.356;2023-01-16T13:25:30;14.03;;;11.30;;
5912;SDS011;2982;42.684;23.356;2023-01-16T13:28:05;17.47;;;10.70;;
5912;SDS011;2982;42.684;23.356;2023-01-16T13:30:40;19.57;;;11.10;;
5912;SDS011;2982;42.684;23.356;2023-01-16T13:33:12;12.20;;;10.37;;
5912;SDS011;2982;42.684;23.356;2023-01-16T13:38:28;13.30;;;10.27;;
5912;SDS011;2982;42.684;23.356;2023-01-16T13:41:23;13.90;;;10.17;;
5912;SDS011;2982;42.684;23.356;2023-01-16T13:43:54;13.03;;;10.80;;
5912;SDS011;2982;42.684;23.356;2023-01-16T13:46:46;15.30;;;10.17;;
5912;SDS011;2982;42.684;23.356;2023-01-16T13:49:19;18.27;;;12.03;;
5912;SDS011;2982;42.684;23.356;2023-01-16T13:51:47;15.27;;;10.50;;
5912;SDS011;2982;42.684;23.356;2023-01-16T13:54:19;21.10;;;12.43;;
5912;SDS011;2982;42.684;23.356;2023-01-16T13:56:57;20.17;;;12.40;;
5912;SDS011;2982;42.684;23.356;2023-01-16T14:02:24;17.87;;;12.20;;
5912;SDS011;2982;42.684;23.356;2023-01-16T14:10:23;19.23;;;13.50;;
5912;SDS011;2982;42.684;23.356;2023-01-16T14:13:00;20.97;;;12.93;;
5912;SDS011;2982;42.684;23.356;2023-01-16T14:15:53;18.43;;;11.90;;
5912;SDS011;2982;42.684;23.356;2023-01-16T14:18:20;16.90;;;12.37;;
5912;SDS011;2982;42.684;23.356;2023-01-16T14:23:24;21.27;;;13.20;;
5912;SDS011;2982;42.684;23.356;2023-01-16T14:25:53;28.40;;;14.23;;
5912;SDS011;2982;42.684;23.356;2023-01-16T14:28:22;21.33;;;13.93;;
5912;SDS011;2982;42.684;23.356;2023-01-16T14:30:51;24.77;;;14.90;;
5912;SDS011;2982;42.684;23.356;2023-01-16T14:33:18;21.30;;;13.40;;
5912;SDS011;2982;42.684;23.356;2023-01-16T14:35:46;17.93;;;12.60;;
5912;SDS011;2982;42.684;23.356;2023-01-16T14:38:15;19.10;;;13.13;;
5912;SDS011;2982;42.684;23.356;2023-01-16T14:41:03;21.63;;;13.50;;
5912;SDS011;2982;42.684;23.356;2023-01-16T14:43:30;21.33;;;13.40;;
5912;SDS011;2982;42.684;23.356;2023-01-16T14:48:41;22.00;;;14.30;;
5912;SDS011;2982;42.684;23.356;2023-01-16T14:53:31;18.27;;;13.03;;
5912;SDS011;2982;42.684;23.356;2023-01-16T14:55:58;23.73;;;14.83;;
5912;SDS011;2982;42.684;23.356;2023-01-16T14:58:28;21.50;;;13.67;;
5912;SDS011;2982;42.684;23.356;2023-01-16T15:00:56;20.97;;;14.03;;
5912;SDS011;2982;42.684;23.356;2023-01-16T15:03:24;23.77;;;13.80;;
5912;SDS011;2982;42.684;23.356;2023-01-16T15:05:55;29.03;;;14.53;;
5912;SDS011;2982;42.684;23.356;2023-01-16T15:08:31;28.07;;;16.30;;
5912;SDS011;2982;42.684;23.356;2023-01-16T15:11:00;25.33;;;16.13;;
5912;SDS011;2982;42.684;23.356;2023-01-16T15:13:32;25.47;;;15.60;;
5912;SDS011;2982;42.684;23.356;2023-01-16T15:15:58;19.40;;;13.87;;
5912;SDS011;2982;42.684;23.356;2023-01-16T15:18:26;33.67;;;15.73;;
5912;SDS011;2982;42.684;23.356;2023-01-16T15:20:51;22.03;;;14.13;;
5912;SDS011;2982;42.684;23.356;2023-01-16T15:23:24;18.87;;;13.30;;
5912;SDS011;2982;42.684;23.356;2023-01-16T15:31:16;19.97;;;13.20;;
5912;SDS011;2982;42.684;23.356;2023-01-16T15:33:45;20.00;;;12.57;;
5912;SDS011;2982;42.684;23.356;2023-01-16T15:38:56;22.90;;;14.57;;
5912;SDS011;2982;42.684;23.356;2023-01-16T15:41:37;23.90;;;14.13;;
5912;SDS011;2982;42.684;23.356;2023-01-16T15:44:03;18.63;;;13.63;;
5912;SDS011;2982;42.684;23.356;2023-01-16T15:49:09;20.83;;;14.37;;
5912;SDS011;2982;42.684;23.356;2023-01-16T15:51:52;23.03;;;13.40;;
5912;SDS011;2982;42.684;23.356;2023-01-16T15:54:18;23.73;;;13.70;;
5912;SDS011;2982;42.684;23.356;2023-01-16T15:56:44;24.07;;;14.87;;
5912;SDS011;2982;42.684;23.356;2023-01-16T15:59:22;21.90;;;15.47;;
5912;SDS011;2982;42.684;23.356;2023-01-16T16:02:07;23.57;;;15.43;;
5912;SDS011;2982;42.684;23.356;2023-01-16T16:04:44;23.30;;;13.83;;
5912;SDS011;2982;42.684;23.356;2023-01-16T16:07:11;24.20;;;14.47;;
5912;SDS011;2982;42.684;23.356;2023-01-16T16:09:37;23.07;;;14.87;;
5912;SDS011;2982;42.684;23.356;2023-01-16T16:12:07;23.43;;;15.07;;
5912;SDS011;2982;42.684;23.356;2023-01-16T16:14:34;26.07;;;15.60;;
5912;SDS011;2982;42.684;23.356;2023-01-16T16:17:20;23.83;;;14.70;;
5912;SDS011;2982;42.684;23.356;2023-01-16T16:19:54;26.30;;;15.17;;
5912;SDS011;2982;42.684;23.356;2023-01-16T16:22:22;22.87;;;15.57;;
5912;SDS011;2982;42.684;23.356;2023-01-16T16:24:48;23.07;;;16.10;;
5912;SDS011;2982;42.684;23.356;2023-01-16T16:27:14;27.50;;;15.47;;
5912;SDS011;2982;42.684;23.356;2023-01-16T16:29:41;25.27;;;15.27;;
5912;SDS011;2982;42.684;23.356;2023-01-16T16:32:14;33.93;;;16.10;;
5912;SDS011;2982;42.684;23.356;2023-01-16T16:34:51;26.03;;;15.23;;
5912;SDS011;2982;42.684;23.356;2023-01-16T16:37:19;23.87;;;15.30;;
5912;SDS011;2982;42.684;23.356;2023-01-16T16:47:33;19.47;;;12.60;;
5912;SDS011;2982;42.684;23.356;2023-01-16T16:49:58;22.63;;;14.63;;
5912;SDS011;2982;42.684;23.356;2023-01-16T16:54:59;19.73;;;13.50;;
5912;SDS011;2982;42.684;23.356;2023-01-16T16:57:26;20.63;;;13.13;;
5912;SDS011;2982;42.684;23.356;2023-01-16T16:59:56;20.63;;;14.20;;
5912;SDS011;2982;42.684;23.356;2023-01-16T17:02:22;23.03;;;14.97;;
5912;SDS011;2982;42.684;23.356;2023-01-16T17:04:48;29.13;;;14.67;;
5912;SDS011;2982;42.684;23.356;2023-01-16T17:07:13;24.63;;;14.47;;
5912;SDS011;2982;42.684;23.356;2023-01-16T17:09:39;21.20;;;14.83;;
5912;SDS011;2982;42.684;23.356;2023-01-16T17:12:17;23.57;;;14.27;;
5912;SDS011;2982;42.684;23.356;2023-01-16T17:14:44;26.37;;;15.07;;